首页
METAR-TAF:

METAR-TAF

机场 :

恩贾梅纳国际机场

恩賈梅納, 乍得

纬度: 12-08N, 经度: 015-02E, 海拔: 295米

当前天气观测

该预报发布于2小时和37分钟前的09:00 UTC
风速12节,风向北转东北
温度 30°C
湿度 12%
气压 1012 hPa
能見度: 8000

METAR: FTTJ 240900Z 03012KT 8000 NSC 30/M03 Q1012 NOSIG

时间: 12:37 (11:37 UTC)

预报

该预报发布于6小时和37分钟前的05:00 UTC
预报有效从24日的 06点(UTC)到 25日的 12点(UTC)
风速7节,风向北转东北
能見度: 8000
短暂存在
从 24日的 06点(UTC)到 24日的 09点(UTC)
能見度: 4000
短暂存在
从 24日的 16点(UTC)到 24日的 20点(UTC)
能見度: 4000

TAF: FTTJ 240500Z 2406/2512 03007KT 8000 NSC TEMPO 2406/2409 4000 HZ TEMPO 2416/2420 4000 HZ

超过4000个机场的气象观测和天气预报(METAR&TAF报告)。

可查询的气象台以黄色和红色小点在地图上表示。

将鼠标移到小点上方,可查看气象台名称。

然后点击查看天气观测和预报。

如需切换地图:点击带黑十字的绿色按钮放大地图;点击带横线的绿色按钮缩小地图;或者点击绿色箭头查看邻近地区的地图。


METAR-TAF: